createdAt,value
2022-10-24T00:01:14.846Z,5.28
2022-10-24T00:03:42.330Z,5.07
2022-10-24T00:06:11.042Z,4.93
2022-10-24T00:08:39.031Z,5.28
2022-10-24T00:11:15.272Z,5.43
2022-10-24T00:13:42.630Z,5.13
2022-10-24T00:16:10.924Z,5.40
2022-10-24T00:18:38.090Z,4.78
2022-10-24T00:21:05.490Z,5.05
2022-10-24T00:23:32.572Z,5.57
2022-10-24T00:26:04.217Z,5.95
2022-10-24T00:28:33.418Z,5.32
2022-10-24T00:31:00.565Z,5.28
2022-10-24T00:33:27.702Z,6.25
2022-10-24T00:35:54.883Z,5.88
2022-10-24T00:38:22.116Z,5.55
2022-10-24T00:40:49.241Z,5.53
2022-10-24T00:43:22.584Z,6.15
2022-10-24T00:45:54.981Z,5.80
2022-10-24T00:48:52.541Z,5.57
2022-10-24T00:51:24.622Z,5.80
2022-10-24T00:53:54.405Z,5.30
2022-10-24T00:56:23.363Z,5.82
2022-10-24T00:58:51.010Z,5.60
2022-10-24T01:01:18.208Z,5.57
2022-10-24T01:03:45.418Z,5.18
2022-10-24T01:06:27.380Z,5.75
2022-10-24T01:09:07.047Z,5.13
2022-10-24T01:11:50.836Z,5.28
2022-10-24T01:14:32.847Z,5.60
2022-10-24T01:17:16.134Z,5.10
2022-10-24T01:20:16.565Z,5.40
2022-10-24T01:23:01.598Z,5.30
2022-10-24T01:25:47.030Z,5.17
2022-10-24T01:28:21.102Z,5.28
2022-10-24T01:31:10.436Z,4.78
2022-10-24T01:33:46.486Z,5.20
2022-10-24T01:36:26.072Z,4.53
2022-10-24T01:38:57.311Z,4.88
2022-10-24T01:41:27.594Z,5.28
2022-10-24T01:44:02.396Z,5.55
2022-10-24T01:46:33.436Z,5.10
2022-10-24T01:49:10.053Z,4.95
2022-10-24T01:51:37.132Z,5.40
2022-10-24T01:54:04.403Z,4.72
2022-10-24T01:56:31.523Z,5.05
2022-10-24T01:59:05.404Z,4.88
2022-10-24T02:01:32.625Z,4.80
2022-10-24T02:04:04.186Z,4.82
2022-10-24T02:06:39.203Z,4.50
2022-10-24T02:09:10.668Z,4.72
2022-10-24T02:11:38.831Z,4.72
2022-10-24T02:14:14.869Z,4.95
2022-10-24T02:16:43.382Z,3.97
2022-10-24T02:19:11.067Z,4.25
2022-10-24T02:21:48.235Z,4.50
2022-10-24T02:24:22.261Z,3.92
2022-10-24T02:26:54.442Z,4.97
2022-10-24T02:29:33.152Z,4.97
2022-10-24T02:32:01.598Z,5.03
2022-10-24T02:34:31.009Z,4.47
2022-10-24T02:36:58.639Z,4.22
2022-10-24T02:39:26.426Z,4.05
2022-10-24T02:41:55.062Z,4.50
2022-10-24T02:44:23.535Z,4.13
2022-10-24T02:46:52.214Z,4.95
2022-10-24T02:49:19.292Z,5.03
2022-10-24T02:51:46.853Z,4.85
2022-10-24T02:54:13.906Z,4.50
2022-10-24T02:56:44.999Z,4.47
2022-10-24T02:59:12.132Z,4.15
2022-10-24T03:01:39.256Z,4.68
2022-10-24T03:04:06.921Z,4.70
2022-10-24T03:06:34.014Z,4.90
2022-10-24T03:09:01.151Z,4.82
2022-10-24T03:11:28.273Z,4.90
2022-10-24T03:13:55.558Z,4.55
2022-10-24T03:16:22.663Z,4.82
2022-10-24T03:18:49.751Z,4.45
2022-10-24T03:21:16.811Z,4.75
2022-10-24T03:23:43.979Z,4.32
2022-10-24T03:26:11.101Z,4.32
2022-10-24T03:28:39.047Z,4.35
2022-10-24T03:31:06.701Z,4.45
2022-10-24T03:33:34.019Z,3.90
2022-10-24T03:36:01.129Z,3.75
2022-10-24T03:38:28.230Z,3.88
2022-10-24T03:40:55.382Z,3.97
2022-10-24T03:43:22.502Z,3.85
2022-10-24T03:45:49.646Z,3.83
2022-10-24T03:48:16.721Z,4.18
2022-10-24T03:50:43.855Z,4.35
2022-10-24T03:53:10.991Z,4.10
2022-10-24T03:55:38.749Z,4.85
2022-10-24T03:58:05.848Z,4.22
2022-10-24T04:00:38.819Z,5.00
2022-10-24T04:03:09.867Z,4.45
2022-10-24T04:08:09.560Z,4.88
2022-10-24T04:10:36.641Z,4.72
2022-10-24T04:13:03.915Z,4.10
2022-10-24T04:15:31.169Z,4.22
2022-10-24T04:17:58.247Z,4.57
2022-10-24T04:20:25.476Z,3.88
2022-10-24T04:22:52.665Z,3.95
2022-10-24T04:25:20.036Z,3.60
2022-10-24T04:27:47.302Z,4.13
2022-10-24T04:30:16.528Z,3.53
2022-10-24T04:32:45.008Z,3.20
2022-10-24T04:35:12.592Z,3.70
2022-10-24T04:37:39.688Z,3.63
2022-10-24T04:40:07.397Z,3.53
2022-10-24T04:42:34.533Z,4.00
2022-10-24T04:45:01.644Z,4.05
2022-10-24T04:47:28.756Z,3.60
2022-10-24T04:49:55.855Z,3.30
2022-10-24T04:52:23.169Z,3.95
2022-10-24T04:54:50.272Z,3.70
2022-10-24T04:57:17.515Z,3.80
2022-10-24T04:59:44.619Z,3.35
2022-10-24T05:02:11.794Z,3.47
2022-10-24T05:04:38.921Z,4.05
2022-10-24T05:07:05.998Z,3.67
2022-10-24T05:09:33.163Z,3.97
2022-10-24T05:12:00.395Z,3.65
2022-10-24T05:14:27.606Z,3.60
2022-10-24T05:16:54.794Z,3.88
2022-10-24T05:19:21.991Z,4.07
2022-10-24T05:21:49.201Z,3.90
2022-10-24T05:24:16.521Z,3.80
2022-10-24T05:26:43.807Z,3.22
2022-10-24T05:29:10.878Z,3.83
2022-10-24T05:31:37.993Z,4.80
2022-10-24T05:34:05.098Z,4.13
2022-10-24T05:36:32.237Z,3.80
2022-10-24T05:38:59.354Z,4.18
2022-10-24T05:41:26.456Z,4.15
2022-10-24T05:43:53.589Z,3.33
2022-10-24T05:46:20.664Z,3.78
2022-10-24T05:48:47.800Z,3.60
2022-10-24T05:51:14.887Z,3.92
2022-10-24T05:53:41.980Z,4.03
2022-10-24T05:56:09.129Z,4.38
2022-10-24T05:58:36.343Z,3.60
2022-10-24T06:01:03.611Z,5.22
2022-10-24T06:03:30.826Z,4.32
2022-10-24T06:05:58.070Z,3.72
2022-10-24T06:08:25.302Z,4.75
2022-10-24T06:10:53.556Z,3.63
2022-10-24T06:13:20.805Z,4.53
2022-10-24T06:15:48.167Z,4.05
2022-10-24T06:18:16.697Z,3.85
2022-10-24T06:20:43.979Z,4.18
2022-10-24T06:23:11.172Z,3.00
2022-10-24T06:25:41.532Z,4.05
2022-10-24T06:30:42.406Z,3.88
2022-10-24T06:33:10.062Z,4.75
2022-10-24T06:35:37.146Z,4.30
2022-10-24T06:38:04.325Z,3.58
2022-10-24T06:40:31.822Z,3.90
2022-10-24T06:42:59.024Z,4.30
2022-10-24T06:45:26.144Z,3.72
2022-10-24T06:47:54.320Z,4.25
2022-10-24T06:50:21.916Z,4.32
2022-10-24T06:52:48.976Z,4.10
2022-10-24T06:55:16.175Z,4.90
2022-10-24T06:57:43.609Z,4.45
2022-10-24T07:00:11.425Z,3.67
2022-10-24T07:02:38.595Z,3.90
2022-10-24T07:05:09.130Z,3.80
2022-10-24T07:07:36.372Z,4.78
2022-10-24T07:10:03.738Z,5.13
2022-10-24T07:12:30.846Z,4.35
2022-10-24T07:14:57.908Z,4.20
2022-10-24T07:17:25.008Z,4.60
2022-10-24T07:19:53.824Z,4.85
2022-10-24T07:22:21.066Z,4.82
2022-10-24T07:24:53.561Z,4.40
2022-10-24T07:27:21.158Z,4.60
2022-10-24T07:29:48.336Z,4.75
2022-10-24T07:32:15.418Z,4.18
2022-10-24T07:34:42.586Z,4.47
2022-10-24T07:37:09.751Z,4.50
2022-10-24T07:39:37.506Z,5.20
2022-10-24T07:42:04.575Z,4.18
2022-10-24T07:44:31.660Z,4.25
2022-10-24T07:46:58.730Z,4.47
2022-10-24T07:49:28.992Z,4.40
2022-10-24T07:51:58.551Z,3.97
2022-10-24T07:54:26.740Z,3.70
2022-10-24T07:56:54.181Z,4.80
2022-10-24T07:59:40.666Z,4.20
2022-10-24T08:02:11.045Z,3.70
2022-10-24T08:04:38.449Z,4.18
2022-10-24T08:07:11.536Z,4.25
2022-10-24T08:09:42.735Z,4.05
2022-10-24T08:12:10.129Z,3.53
2022-10-24T08:14:38.473Z,4.75
2022-10-24T08:17:05.602Z,4.72
2022-10-24T08:19:33.336Z,4.43
2022-10-24T08:22:01.101Z,5.38
2022-10-24T08:24:28.344Z,3.95
2022-10-24T08:26:58.196Z,4.38
2022-10-24T08:29:25.461Z,4.05
2022-10-24T08:31:55.588Z,4.47
2022-10-24T08:34:23.307Z,4.75
2022-10-24T08:36:50.532Z,4.38
2022-10-24T08:39:18.784Z,4.95
2022-10-24T08:41:59.441Z,3.83
2022-10-24T08:44:31.126Z,4.20
2022-10-24T08:47:09.859Z,3.92
2022-10-24T08:49:52.153Z,3.78
2022-10-24T08:52:49.181Z,3.55
2022-10-24T08:55:30.883Z,3.78
2022-10-24T08:58:05.515Z,3.40
2022-10-24T09:00:41.763Z,3.72
2022-10-24T09:03:31.226Z,3.90
2022-10-24T09:06:08.218Z,4.65
2022-10-24T09:08:43.734Z,3.50
2022-10-24T09:13:41.255Z,3.90
2022-10-24T09:16:22.849Z,3.33
2022-10-24T09:18:53.387Z,3.50
2022-10-24T09:21:21.501Z,3.42
2022-10-24T09:23:50.000Z,3.55
2022-10-24T09:26:24.543Z,3.47
2022-10-24T09:28:51.654Z,3.63
2022-10-24T09:31:21.201Z,3.28
2022-10-24T09:33:49.717Z,3.08
2022-10-24T09:36:18.565Z,3.72
2022-10-24T09:38:46.886Z,3.40
2022-10-24T09:41:13.884Z,3.17
2022-10-24T09:43:43.578Z,3.05
2022-10-24T09:46:13.976Z,4.82
2022-10-24T09:49:02.934Z,2.80
2022-10-24T09:51:36.290Z,3.33
2022-10-24T09:54:18.589Z,4.05
2022-10-24T09:56:54.322Z,3.80
2022-10-24T10:00:00.608Z,2.88
2022-10-24T10:02:28.237Z,3.00
2022-10-24T10:05:04.188Z,3.30
2022-10-24T10:07:33.771Z,3.67
2022-10-24T10:10:19.691Z,3.90
2022-10-24T10:13:00.100Z,3.05
2022-10-24T10:15:46.030Z,3.10
2022-10-24T10:18:25.097Z,3.10
2022-10-24T10:21:11.923Z,2.90
2022-10-24T10:23:48.584Z,3.22
2022-10-24T10:26:28.509Z,3.03
2022-10-24T10:29:04.597Z,3.05
2022-10-24T10:31:43.593Z,2.88
2022-10-24T10:34:35.665Z,3.33
2022-10-24T10:37:08.408Z,2.80
2022-10-24T10:40:13.927Z,3.92
2022-10-24T10:42:59.359Z,2.65
2022-10-24T10:45:39.900Z,2.97
2022-10-24T10:48:25.550Z,2.83
2022-10-24T10:51:07.295Z,3.05
2022-10-24T10:53:55.301Z,3.00
2022-10-24T10:56:32.683Z,2.65
2022-10-24T10:59:37.578Z,3.05
2022-10-24T11:02:38.452Z,2.85
2022-10-24T11:05:14.486Z,3.03
2022-10-24T11:07:50.936Z,3.22
2022-10-24T11:10:22.297Z,2.95
2022-10-24T11:12:49.566Z,3.13
2022-10-24T11:15:29.668Z,2.65
2022-10-24T11:18:06.518Z,2.88
2022-10-24T11:20:44.195Z,3.80
2022-10-24T11:23:23.229Z,2.80
2022-10-24T11:26:08.022Z,2.70
2022-10-24T11:28:46.776Z,2.78
2022-10-24T11:31:15.216Z,2.88
2022-10-24T11:33:45.615Z,2.50
2022-10-24T11:36:45.533Z,3.30
2022-10-24T11:39:14.458Z,2.85
2022-10-24T11:41:59.617Z,3.28
2022-10-24T11:44:44.196Z,2.45
2022-10-24T11:47:25.987Z,3.00
2022-10-24T11:50:12.898Z,2.53
2022-10-24T11:52:43.807Z,3.83
2022-10-24T11:55:17.032Z,2.70
2022-10-24T11:57:46.491Z,3.15
2022-10-24T12:00:26.002Z,3.25
2022-10-24T12:03:11.802Z,2.97
2022-10-24T12:08:28.843Z,2.42
2022-10-24T12:11:11.144Z,2.60
2022-10-24T12:13:50.131Z,2.83
2022-10-24T12:16:45.491Z,2.33
2022-10-24T12:19:16.019Z,2.75
2022-10-24T12:21:55.198Z,3.40
2022-10-24T12:24:37.099Z,3.25
2022-10-24T12:27:19.430Z,2.80
2022-10-24T12:30:01.106Z,3.33
2022-10-24T12:32:40.634Z,3.35
2022-10-24T12:35:30.317Z,2.60
2022-10-24T12:37:58.731Z,3.50
2022-10-24T12:40:57.643Z,2.97
2022-10-24T12:43:37.592Z,2.75
2022-10-24T12:46:25.680Z,2.60
2022-10-24T12:48:58.895Z,3.08
2022-10-24T12:51:36.278Z,2.30
2022-10-24T12:54:12.194Z,3.95
2022-10-24T12:56:51.481Z,4.07
2022-10-24T12:59:25.148Z,3.58
2022-10-24T13:02:14.974Z,3.17
2022-10-24T13:05:07.999Z,3.08
2022-10-24T13:07:48.407Z,2.33
2022-10-24T13:10:45.416Z,2.50
2022-10-24T13:13:27.239Z,2.20
2022-10-24T13:15:55.369Z,3.63
2022-10-24T13:18:46.939Z,2.83
2022-10-24T13:21:15.134Z,2.83
2022-10-24T13:23:46.279Z,2.78
2022-10-24T13:26:40.286Z,3.42
2022-10-24T13:29:39.360Z,2.95
2022-10-24T13:32:06.307Z,2.30
2022-10-24T13:34:56.585Z,2.45
2022-10-24T13:37:26.650Z,2.63
2022-10-24T13:39:57.128Z,2.92
2022-10-24T13:42:39.779Z,2.40
2022-10-24T13:45:34.322Z,2.70
2022-10-24T13:48:07.130Z,2.50
2022-10-24T13:50:37.496Z,3.13
2022-10-24T13:53:30.900Z,2.03
2022-10-24T13:56:02.775Z,2.63
2022-10-24T13:58:40.978Z,2.97
2022-10-24T14:01:25.441Z,2.88
2022-10-24T14:03:54.066Z,2.40
2022-10-24T14:06:26.052Z,2.83
2022-10-24T14:09:05.559Z,2.60
2022-10-24T14:11:35.234Z,1.95
2022-10-24T14:14:07.069Z,2.45
2022-10-24T14:16:35.675Z,2.30
2022-10-24T14:19:29.569Z,2.08
2022-10-24T14:21:58.123Z,2.95
2022-10-24T14:24:25.457Z,2.50
2022-10-24T14:26:53.403Z,3.05
2022-10-24T14:29:31.119Z,3.67
2022-10-24T14:32:00.867Z,2.70
2022-10-24T14:34:31.436Z,2.63
2022-10-24T14:37:05.492Z,2.00
2022-10-24T14:39:32.908Z,2.30
2022-10-24T14:42:01.551Z,2.22
2022-10-24T14:44:29.178Z,2.17
2022-10-24T14:47:04.350Z,2.75
2022-10-24T14:49:34.127Z,2.50
2022-10-24T14:52:27.527Z,2.40
2022-10-24T14:55:00.509Z,2.50
2022-10-24T14:57:29.067Z,2.92
2022-10-24T14:59:59.615Z,2.95
2022-10-24T15:02:30.506Z,3.00
2022-10-24T15:05:22.987Z,2.35
2022-10-24T15:08:23.408Z,2.35
2022-10-24T15:11:04.116Z,2.90
2022-10-24T15:13:33.287Z,2.70
2022-10-24T15:16:01.840Z,2.22
2022-10-24T15:18:31.494Z,3.15
2022-10-24T15:21:14.680Z,3.42
2022-10-24T15:23:51.165Z,2.65
2022-10-24T15:26:42.880Z,2.25
2022-10-24T15:29:13.368Z,2.92
2022-10-24T15:31:46.364Z,2.78
2022-10-24T15:34:34.634Z,2.50
2022-10-24T15:37:04.134Z,2.88
2022-10-24T15:39:31.610Z,3.25
2022-10-24T15:41:59.287Z,2.70
2022-10-24T15:44:32.340Z,3.20
2022-10-24T15:46:59.819Z,3.35
2022-10-24T15:49:29.250Z,3.00
2022-10-24T15:51:59.577Z,3.30
2022-10-24T15:54:27.304Z,3.28
2022-10-24T15:56:55.509Z,3.60
2022-10-24T15:59:26.795Z,3.95
2022-10-24T16:02:00.303Z,3.38
2022-10-24T16:04:28.149Z,3.03
2022-10-24T16:06:56.162Z,2.83
2022-10-24T16:09:31.330Z,3.40
2022-10-24T16:11:59.238Z,2.85
2022-10-24T16:14:26.835Z,3.20
2022-10-24T16:16:55.365Z,3.28
2022-10-24T16:19:23.962Z,3.13
2022-10-24T16:21:52.764Z,3.20
2022-10-24T16:24:20.246Z,3.10
2022-10-24T16:26:47.628Z,3.17
2022-10-24T16:29:15.341Z,3.72
2022-10-24T16:31:44.033Z,3.00
2022-10-24T16:34:11.737Z,3.85
2022-10-24T16:36:41.738Z,2.65
2022-10-24T16:39:09.264Z,2.72
2022-10-24T16:41:36.833Z,3.45
2022-10-24T16:44:04.414Z,2.95
2022-10-24T16:46:31.777Z,2.25
2022-10-24T16:48:59.290Z,2.50
2022-10-24T16:51:32.329Z,2.28
2022-10-24T16:54:01.318Z,2.45
2022-10-24T16:56:30.346Z,2.97
2022-10-24T16:58:57.947Z,2.28
2022-10-24T17:01:27.781Z,3.17
2022-10-24T17:03:55.432Z,2.83
2022-10-24T17:06:23.032Z,2.55
2022-10-24T17:08:51.712Z,2.65
2022-10-24T17:11:43.261Z,2.63
2022-10-24T17:16:41.903Z,2.90
2022-10-24T17:19:16.196Z,2.50
2022-10-24T17:21:48.960Z,3.10
2022-10-24T17:24:22.201Z,2.47
2022-10-24T17:26:50.165Z,2.75
2022-10-24T17:29:30.125Z,2.45
2022-10-24T17:31:58.930Z,2.30
2022-10-24T17:34:27.038Z,2.47
2022-10-24T17:37:19.699Z,3.17
2022-10-24T17:39:50.655Z,3.00
2022-10-24T17:42:19.577Z,3.35
2022-10-24T17:44:47.787Z,2.80
2022-10-24T17:47:18.376Z,2.75
2022-10-24T17:49:46.105Z,2.42
2022-10-24T17:52:18.152Z,2.55
2022-10-24T17:54:45.994Z,3.03
2022-10-24T17:57:13.585Z,3.05
2022-10-24T17:59:41.082Z,2.88
2022-10-24T18:02:13.352Z,2.45
2022-10-24T18:04:43.053Z,2.30
2022-10-24T18:07:10.728Z,2.63
2022-10-24T18:09:40.208Z,2.30
2022-10-24T18:12:07.953Z,2.80
2022-10-24T18:14:41.553Z,2.60
2022-10-24T18:17:09.063Z,3.17
2022-10-24T18:19:36.650Z,3.33
2022-10-24T18:22:04.000Z,2.40
2022-10-24T18:24:31.727Z,2.85
2022-10-24T18:26:59.333Z,2.80
2022-10-24T18:29:26.927Z,2.75
2022-10-24T18:31:54.551Z,2.90
2022-10-24T18:34:34.770Z,2.28
2022-10-24T18:37:02.331Z,2.50
2022-10-24T18:39:30.133Z,4.25
2022-10-24T18:42:26.104Z,2.95
2022-10-24T18:44:53.824Z,3.00
2022-10-24T18:47:24.820Z,2.70
2022-10-24T18:49:54.549Z,2.60
2022-10-24T18:52:56.337Z,2.78
2022-10-24T18:55:26.465Z,3.00
2022-10-24T18:57:54.421Z,2.72
2022-10-24T19:00:24.307Z,3.22
2022-10-24T19:03:21.822Z,2.17
2022-10-24T19:05:55.748Z,2.50
2022-10-24T19:08:25.338Z,2.40
2022-10-24T19:10:56.229Z,2.40
2022-10-24T19:13:25.778Z,2.85
2022-10-24T19:16:01.312Z,2.55
2022-10-24T19:20:56.369Z,2.63
2022-10-24T19:23:24.843Z,2.97
2022-10-24T19:25:52.464Z,2.40
2022-10-24T19:28:20.846Z,1.77
2022-10-24T19:30:48.821Z,2.83
2022-10-24T19:33:16.860Z,2.53
2022-10-24T19:35:48.930Z,2.17
2022-10-24T19:38:17.863Z,2.13
2022-10-24T19:40:52.122Z,2.38
2022-10-24T19:43:20.615Z,2.78
2022-10-24T19:46:00.526Z,2.00
2022-10-24T19:48:37.413Z,2.45
2022-10-24T19:51:07.028Z,2.40
2022-10-24T19:53:35.621Z,2.55
2022-10-24T19:56:07.667Z,2.80
2022-10-24T19:58:35.269Z,2.97
2022-10-24T20:01:08.131Z,2.83
2022-10-24T20:03:37.069Z,2.30
2022-10-24T20:06:04.797Z,2.30
2022-10-24T20:08:32.289Z,4.45
2022-10-24T20:11:00.474Z,2.72
2022-10-24T20:13:28.192Z,2.10
2022-10-24T20:16:00.122Z,2.58
2022-10-24T20:18:28.736Z,2.40
2022-10-24T20:20:58.958Z,3.20
2022-10-24T20:23:26.565Z,3.28
2022-10-24T20:26:15.718Z,2.75
2022-10-24T20:28:46.092Z,2.25
2022-10-24T20:31:29.643Z,1.90
2022-10-24T20:34:06.864Z,2.85
2022-10-24T20:36:47.342Z,2.65
2022-10-24T20:39:16.336Z,2.38
2022-10-24T20:41:43.935Z,2.60
2022-10-24T20:44:12.028Z,2.28
2022-10-24T20:46:40.219Z,2.05
2022-10-24T20:49:07.712Z,3.28
2022-10-24T20:51:35.182Z,2.42
2022-10-24T20:54:02.782Z,2.40
2022-10-24T20:56:30.511Z,3.15
2022-10-24T20:58:57.993Z,3.35
2022-10-24T21:01:27.706Z,2.28
2022-10-24T21:03:56.559Z,1.90
2022-10-24T21:06:26.067Z,2.70
2022-10-24T21:08:55.569Z,2.90
2022-10-24T21:11:26.325Z,2.95
2022-10-24T21:14:01.726Z,3.22
2022-10-24T21:16:29.674Z,2.92
2022-10-24T21:18:58.483Z,2.63
2022-10-24T21:21:26.443Z,2.50
2022-10-24T21:23:57.272Z,2.50
2022-10-24T21:26:26.922Z,2.67
2022-10-24T21:28:59.487Z,3.00
2022-10-24T21:31:42.298Z,2.83
2022-10-24T21:34:10.012Z,2.70
2022-10-24T21:36:37.485Z,3.05
2022-10-24T21:39:05.209Z,3.45
2022-10-24T21:41:33.663Z,3.28
2022-10-24T21:44:01.268Z,3.40
2022-10-24T21:46:31.861Z,3.33
2022-10-24T21:48:59.934Z,2.72
2022-10-24T21:51:33.309Z,2.88
2022-10-24T21:54:03.543Z,2.78
2022-10-24T21:56:34.526Z,2.95
2022-10-24T21:59:05.468Z,3.05
2022-10-24T22:01:35.312Z,2.55
2022-10-24T22:04:03.547Z,3.00
2022-10-24T22:06:32.021Z,2.60
2022-10-24T22:08:59.838Z,3.33
2022-10-24T22:11:30.204Z,2.60
2022-10-24T22:13:58.033Z,2.83
2022-10-24T22:16:28.164Z,2.70
2022-10-24T22:18:57.205Z,2.75
2022-10-24T22:21:27.560Z,3.05
2022-10-24T22:23:56.933Z,3.10
2022-10-24T22:26:25.530Z,2.78
2022-10-24T22:28:55.780Z,2.60
2022-10-24T22:31:25.169Z,2.95
2022-10-24T22:33:53.280Z,2.50
2022-10-24T22:36:42.711Z,2.90
2022-10-24T22:39:16.419Z,3.10
2022-10-24T22:41:46.673Z,2.60
2022-10-24T22:44:16.812Z,2.92
2022-10-24T22:47:06.336Z,3.05
2022-10-24T22:49:42.702Z,2.95
2022-10-24T22:52:11.657Z,2.80
2022-10-24T22:54:39.817Z,2.95
2022-10-24T22:57:07.786Z,2.75
2022-10-24T22:59:35.521Z,2.67
2022-10-24T23:02:14.236Z,2.92
2022-10-24T23:04:54.345Z,2.97
2022-10-24T23:07:34.191Z,3.17
2022-10-24T23:10:01.799Z,3.58
2022-10-24T23:12:29.284Z,3.72
2022-10-24T23:14:56.996Z,3.65
2022-10-24T23:17:29.036Z,3.25
2022-10-24T23:19:57.123Z,2.80
2022-10-24T23:22:28.514Z,3.70
2022-10-24T23:25:00.850Z,3.00
2022-10-24T23:27:43.995Z,3.35
2022-10-24T23:30:23.325Z,3.75
2022-10-24T23:32:51.398Z,3.38
2022-10-24T23:35:20.043Z,3.58
2022-10-24T23:37:50.177Z,3.17
2022-10-24T23:40:17.775Z,3.17
2022-10-24T23:42:46.433Z,3.20
2022-10-24T23:45:15.858Z,2.75
2022-10-24T23:48:09.017Z,3.25
2022-10-24T23:50:38.413Z,3.58
2022-10-24T23:53:24.266Z,3.30
2022-10-24T23:58:19.346Z,2.45
